createdAt,value
2019-03-03T00:00:53.720Z,96959.10
2019-03-03T00:03:49.286Z,96959.94
2019-03-03T00:06:46.056Z,96953.17
2019-03-03T00:09:41.771Z,96952.27
2019-03-03T00:12:38.296Z,96953.11
2019-03-03T00:15:34.340Z,96953.94
2019-03-03T00:18:31.130Z,96948.43
2019-03-03T00:21:27.527Z,96943.85
2019-03-03T00:24:24.256Z,96946.38
2019-03-03T00:27:19.972Z,96943.85
2019-03-03T00:30:17.824Z,96947.17
2019-03-03T00:33:13.351Z,96943.45
2019-03-03T00:36:10.013Z,96944.80
2019-03-03T00:39:16.269Z,96947.36
2019-03-03T00:42:27.729Z,96941.45
2019-03-03T00:45:39.321Z,96942.34
2019-03-03T00:49:00.185Z,96928.91
2019-03-03T00:52:14.255Z,96931.42
2019-03-03T00:55:38.512Z,96933.15
2019-03-03T00:58:55.396Z,96925.52
2019-03-03T01:02:09.541Z,96926.32
2019-03-03T01:05:13.163Z,96927.16
2019-03-03T01:08:21.461Z,96935.15
2019-03-03T01:11:37.741Z,96941.45
2019-03-03T01:14:59.615Z,96937.27
2019-03-03T01:18:06.481Z,96933.52
2019-03-03T01:21:14.619Z,96935.67
2019-03-03T01:24:29.206Z,96938.19
2019-03-03T01:27:25.692Z,96935.73
2019-03-03T01:30:22.704Z,96935.73
2019-03-03T01:33:19.245Z,96939.61
2019-03-03T01:36:14.693Z,96934.16
2019-03-03T01:39:11.489Z,96934.63
2019-03-03T01:42:07.686Z,96925.82
2019-03-03T01:45:03.409Z,96929.23
2019-03-03T01:48:00.987Z,96932.62
2019-03-03T01:50:56.759Z,96931.73
2019-03-03T01:53:54.039Z,96935.08
2019-03-03T01:56:49.531Z,96936.75
2019-03-03T01:59:46.073Z,96945.14
2019-03-03T02:02:42.758Z,96942.19
2019-03-03T02:05:38.964Z,96940.09
2019-03-03T02:08:33.891Z,96941.36
2019-03-03T02:11:31.378Z,96938.04
2019-03-03T02:14:27.083Z,96940.98
2019-03-03T02:17:23.657Z,96937.67
2019-03-03T02:20:20.259Z,96937.67
2019-03-03T02:23:17.351Z,96929.64
2019-03-03T02:26:12.138Z,96930.09
2019-03-03T02:29:08.232Z,96935.08
2019-03-03T02:32:04.706Z,96935.08
2019-03-03T02:35:00.502Z,96929.20
2019-03-03T02:37:57.381Z,96924.16
2019-03-03T02:40:53.098Z,96919.91
2019-03-03T02:43:54.341Z,96914.87
2019-03-03T02:46:49.788Z,96919.12
2019-03-03T02:49:47.659Z,96914.08
2019-03-03T02:52:43.186Z,96914.87
2019-03-03T02:55:39.676Z,96917.39
2019-03-03T02:58:34.385Z,96918.25
2019-03-03T03:01:36.959Z,96915.77
2019-03-03T03:04:32.201Z,96909.03
2019-03-03T03:07:43.147Z,96914.97
2019-03-03T03:11:00.095Z,96914.13
2019-03-03T03:14:08.073Z,96920.87
2019-03-03T03:17:19.147Z,96911.67
2019-03-03T03:20:24.244Z,96909.14
2019-03-03T03:23:36.334Z,96909.98
2019-03-03T03:26:58.546Z,96906.19
2019-03-03T03:30:08.517Z,96907.48
2019-03-03T03:33:25.998Z,96910.86
2019-03-03T03:36:36.787Z,96905.82
2019-03-03T03:39:46.130Z,96905.82
2019-03-03T03:42:47.507Z,96907.88
2019-03-03T03:45:56.075Z,96905.82
2019-03-03T03:49:09.277Z,96904.47
2019-03-03T03:52:30.063Z,96901.09
2019-03-03T03:55:39.554Z,96907.40
2019-03-03T03:58:42.290Z,96909.03
2019-03-03T04:01:49.708Z,96916.59
2019-03-03T04:05:01.688Z,96906.48
2019-03-03T04:08:14.969Z,96913.98
2019-03-03T04:11:22.863Z,96909.77
2019-03-03T04:14:28.876Z,96917.34
2019-03-03T04:17:37.934Z,96912.30
2019-03-03T04:20:44.997Z,96919.02
2019-03-03T04:23:56.157Z,96915.70
2019-03-03T04:27:13.104Z,96914.08
2019-03-03T04:30:22.061Z,96909.92
2019-03-03T04:33:36.189Z,96914.13
2019-03-03T04:36:49.437Z,96906.98
2019-03-03T04:39:52.085Z,96898.16
2019-03-03T04:42:55.543Z,96905.73
2019-03-03T04:46:06.597Z,96900.63
2019-03-03T04:49:15.449Z,96900.63
2019-03-03T04:52:23.255Z,96890.91
2019-03-03T04:55:35.585Z,96888.84
2019-03-03T04:58:38.246Z,96895.18
2019-03-03T05:02:00.286Z,96895.58
2019-03-03T05:05:14.876Z,96892.27
2019-03-03T05:08:24.012Z,96884.29
2019-03-03T05:11:40.727Z,96877.13
2019-03-03T05:14:43.121Z,96881.34
2019-03-03T05:17:50.508Z,96881.73
2019-03-03T05:20:56.286Z,96890.11
2019-03-03T05:23:51.804Z,96887.22
2019-03-03T05:26:49.543Z,96896.47
2019-03-03T05:29:46.047Z,96891.43
2019-03-03T05:32:41.823Z,96885.49
2019-03-03T05:35:38.663Z,96882.17
2019-03-03T05:38:34.003Z,96882.17
2019-03-03T05:41:30.489Z,96880.45
2019-03-03T05:44:25.924Z,96878.76
2019-03-03T05:47:22.621Z,96880.02
2019-03-03T05:50:17.968Z,96874.55
2019-03-03T05:53:14.527Z,96873.74
2019-03-03T05:56:11.044Z,96875.03
2019-03-03T05:59:06.843Z,96871.25
2019-03-03T06:02:03.183Z,96866.20
2019-03-03T06:04:58.602Z,96867.09
2019-03-03T06:07:56.277Z,96869.67
2019-03-03T06:10:51.817Z,96864.65
2019-03-03T06:13:48.233Z,96868.50
2019-03-03T06:16:45.015Z,96864.77
2019-03-03T06:19:41.500Z,96865.20
2019-03-03T06:22:37.021Z,96865.66
2019-03-03T06:25:34.957Z,96862.33
2019-03-03T06:28:30.460Z,96865.77
2019-03-03T06:31:26.972Z,96857.02
2019-03-03T06:34:23.485Z,96865.90
2019-03-03T06:37:20.227Z,96861.73
2019-03-03T06:40:17.062Z,96854.59
2019-03-03T06:43:12.691Z,96850.38
2019-03-03T06:46:09.290Z,96852.45
2019-03-03T06:49:04.913Z,96849.12
2019-03-03T06:52:01.472Z,96848.40
2019-03-03T06:54:58.550Z,96844.27
2019-03-03T06:57:57.397Z,96840.98
2019-03-03T07:00:53.139Z,96836.01
2019-03-03T07:03:49.693Z,96837.80
2019-03-03T07:06:46.626Z,96840.38
2019-03-03T07:09:41.473Z,96848.45
2019-03-03T07:12:37.537Z,96845.65
2019-03-03T07:15:34.065Z,96849.23
2019-03-03T07:18:27.324Z,96840.94
2019-03-03T07:21:24.117Z,96846.13
2019-03-03T07:24:20.685Z,96838.70
2019-03-03T07:27:17.382Z,96842.98
2019-03-03T07:30:14.224Z,96850.19
2019-03-03T07:33:24.519Z,96849.88
2019-03-03T07:36:21.221Z,96856.66
2019-03-03T07:39:16.649Z,96858.42
2019-03-03T07:42:13.163Z,96853.48
2019-03-03T07:45:08.704Z,96856.51
2019-03-03T07:48:06.239Z,96864.17
2019-03-03T07:51:01.708Z,96858.34
2019-03-03T07:53:58.509Z,96863.98
2019-03-03T07:56:56.387Z,96859.52
2019-03-03T07:59:53.099Z,96865.19
2019-03-03T08:02:51.975Z,96862.79
2019-03-03T08:05:47.752Z,96868.67
2019-03-03T08:08:45.886Z,96872.86
2019-03-03T08:11:40.328Z,96866.94
2019-03-03T08:14:36.979Z,96873.06
2019-03-03T08:17:33.434Z,96873.06
2019-03-03T08:20:31.136Z,96867.38
2019-03-03T08:23:26.344Z,96862.41
2019-03-03T08:26:23.100Z,96863.31
2019-03-03T08:29:18.641Z,96865.42
2019-03-03T08:32:14.642Z,96860.75
2019-03-03T08:35:10.461Z,96852.20
2019-03-03T08:38:08.589Z,96847.09
2019-03-03T08:41:04.228Z,96848.78
2019-03-03T08:44:16.585Z,96847.52
2019-03-03T08:47:28.951Z,96844.98
2019-03-03T08:50:50.100Z,96845.50
2019-03-03T08:53:57.540Z,96838.00
2019-03-03T08:57:05.257Z,96839.74
2019-03-03T09:00:22.558Z,96832.18
2019-03-03T09:03:35.170Z,96830.65
2019-03-03T09:06:43.320Z,96830.72
2019-03-03T09:10:00.274Z,96833.31
2019-03-03T09:13:04.746Z,96817.31
2019-03-03T09:16:17.684Z,96812.36
2019-03-03T09:19:29.901Z,96817.14
2019-03-03T09:22:33.258Z,96808.44
2019-03-03T09:25:40.141Z,96801.38
2019-03-03T09:28:47.404Z,96793.39
2019-03-03T09:32:03.960Z,96789.19
2019-03-03T09:35:13.256Z,96781.66
2019-03-03T09:38:30.932Z,96790.15
2019-03-03T09:42:00.570Z,96788.80
2019-03-03T09:45:12.487Z,96790.86
2019-03-03T09:48:33.381Z,96788.34
2019-03-03T09:51:43.954Z,96788.53
2019-03-03T09:54:56.729Z,96791.17
2019-03-03T09:58:06.984Z,96791.70
2019-03-03T10:01:32.459Z,96782.95
2019-03-03T10:04:41.695Z,96787.27
2019-03-03T10:07:52.423Z,96789.90
2019-03-03T10:10:55.714Z,96782.36
2019-03-03T10:13:58.220Z,96775.66
2019-03-03T10:17:14.779Z,96783.75
2019-03-03T10:20:39.381Z,96779.97
2019-03-03T10:24:02.704Z,96790.13
2019-03-03T10:27:10.774Z,96780.38
2019-03-03T10:30:31.495Z,96785.03
2019-03-03T10:33:41.820Z,96771.91
2019-03-03T10:36:57.217Z,96771.91
2019-03-03T10:40:07.053Z,96763.03
2019-03-03T10:43:25.689Z,96765.61
2019-03-03T10:46:36.211Z,96760.11
2019-03-03T10:49:58.920Z,96754.60
2019-03-03T10:53:07.976Z,96758.82
2019-03-03T10:56:21.492Z,96754.61
2019-03-03T10:59:32.586Z,96755.42
2019-03-03T11:02:38.378Z,96761.78
2019-03-03T11:06:00.813Z,96751.61
2019-03-03T11:09:06.640Z,96756.27
2019-03-03T11:12:15.895Z,96756.25
2019-03-03T11:15:24.809Z,96757.08
2019-03-03T11:18:38.086Z,96764.75
2019-03-03T11:21:59.998Z,96764.29
2019-03-03T11:25:18.737Z,96758.77
2019-03-03T11:28:39.971Z,96756.24
2019-03-03T11:31:48.465Z,96760.45
2019-03-03T11:35:02.008Z,96735.84
2019-03-03T11:38:18.942Z,96735.84
2019-03-03T11:41:25.578Z,96729.09
2019-03-03T11:44:35.746Z,96725.67
2019-03-03T11:47:44.935Z,96725.67
2019-03-03T11:51:01.795Z,96717.19
2019-03-03T11:54:13.559Z,96714.63
2019-03-03T11:57:30.699Z,96707.84
2019-03-03T12:00:56.152Z,96699.33
2019-03-03T12:04:08.605Z,96689.56
2019-03-03T12:07:13.411Z,96679.77
2019-03-03T12:10:34.188Z,96674.30
2019-03-03T12:13:38.624Z,96681.51
2019-03-03T12:16:47.847Z,96680.64
2019-03-03T12:19:53.905Z,96668.73
2019-03-03T12:22:59.200Z,96668.30
2019-03-03T12:26:08.043Z,96661.91
2019-03-03T12:29:19.899Z,96659.29
2019-03-03T12:32:28.291Z,96659.27
2019-03-03T12:35:44.541Z,96635.46
2019-03-03T12:38:54.383Z,96629.50
2019-03-03T12:42:04.349Z,96617.54
2019-03-03T12:45:12.041Z,96619.19
2019-03-03T12:48:32.501Z,96620.02
2019-03-03T12:51:42.242Z,96616.70
2019-03-03T12:55:00.566Z,96616.70
2019-03-03T12:58:27.440Z,96627.67
2019-03-03T13:01:36.512Z,96618.30
2019-03-03T13:04:40.609Z,96623.36
2019-03-03T13:07:48.644Z,96614.91
2019-03-03T13:10:52.611Z,96614.95
2019-03-03T13:14:00.246Z,96602.27
2019-03-03T13:17:10.657Z,96598.92
2019-03-03T13:20:19.857Z,96604.02
2019-03-03T13:23:29.600Z,96584.47
2019-03-03T13:26:44.022Z,96596.67
2019-03-03T13:29:52.742Z,96588.53
2019-03-03T13:33:08.038Z,96576.72
2019-03-03T13:36:17.328Z,96573.38
2019-03-03T13:39:33.858Z,96562.74
2019-03-03T13:42:42.756Z,96560.56
2019-03-03T13:45:38.270Z,96552.11
2019-03-03T13:48:35.136Z,96554.64
2019-03-03T13:51:30.641Z,96552.05
2019-03-03T13:54:27.352Z,96545.14
2019-03-03T13:57:23.003Z,96542.89
2019-03-03T14:00:19.228Z,96538.30
2019-03-03T14:03:16.275Z,96529.84
2019-03-03T14:06:14.208Z,96522.60
2019-03-03T14:09:10.929Z,96519.66
2019-03-03T14:12:08.553Z,96520.48
2019-03-03T14:15:06.130Z,96522.20
2019-03-03T14:18:02.637Z,96523.05
2019-03-03T14:20:59.357Z,96516.30
2019-03-03T14:23:55.524Z,96512.13
2019-03-03T14:26:52.147Z,96510.06
2019-03-03T14:29:47.623Z,96496.89
2019-03-03T14:32:45.227Z,96486.73
2019-03-03T14:35:40.874Z,96487.56
2019-03-03T14:38:37.319Z,96490.86
2019-03-03T14:41:32.923Z,96488.62
2019-03-03T14:44:29.472Z,96484.72
2019-03-03T14:47:25.124Z,96487.98
2019-03-03T14:50:21.565Z,96468.48
2019-03-03T14:53:17.491Z,96480.48
2019-03-03T14:56:14.063Z,96477.19
2019-03-03T14:59:10.869Z,96480.22
2019-03-03T15:02:06.615Z,96469.23
2019-03-03T15:05:03.185Z,96464.63
2019-03-03T15:07:58.753Z,96466.38
2019-03-03T15:10:55.662Z,96463.42
2019-03-03T15:13:52.525Z,96453.68
2019-03-03T15:16:50.127Z,96441.05
2019-03-03T15:19:44.881Z,96437.31
2019-03-03T15:22:41.412Z,96437.75
2019-03-03T15:25:36.949Z,96427.64
2019-03-03T15:28:33.404Z,96421.74
2019-03-03T15:31:37.708Z,96426.91
2019-03-03T15:34:32.338Z,96420.11
2019-03-03T15:37:27.751Z,96426.05
2019-03-03T15:40:24.271Z,96413.78
2019-03-03T15:43:19.956Z,96413.38
2019-03-03T15:46:23.391Z,96403.63
2019-03-03T15:49:19.085Z,96398.99
2019-03-03T15:52:14.126Z,96391.41
2019-03-03T15:55:10.776Z,96391.45
2019-03-03T15:58:06.460Z,96394.89
2019-03-03T16:01:04.227Z,96392.34
2019-03-03T16:04:00.471Z,96387.30
2019-03-03T16:06:56.899Z,96394.14
2019-03-03T16:09:52.598Z,96403.48
2019-03-03T16:12:49.296Z,96386.13
2019-03-03T16:15:46.476Z,96379.77
2019-03-03T16:18:43.148Z,96376.85
2019-03-03T16:21:38.652Z,96378.13
2019-03-03T16:24:36.414Z,96384.11
2019-03-03T16:27:31.948Z,96377.36
2019-03-03T16:30:29.678Z,96374.45
2019-03-03T16:33:25.410Z,96370.21
2019-03-03T16:36:22.025Z,96373.63
2019-03-03T16:39:18.728Z,96367.28
2019-03-03T16:42:14.429Z,96369.88
2019-03-03T16:45:11.976Z,96369.03
2019-03-03T16:48:07.609Z,96375.00
2019-03-03T16:51:04.045Z,96377.53
2019-03-03T16:53:59.529Z,96381.39
2019-03-03T16:56:56.613Z,96380.13
2019-03-03T16:59:53.378Z,96379.73
2019-03-03T17:02:49.082Z,96375.07
2019-03-03T17:05:46.280Z,96365.77
2019-03-03T17:08:42.221Z,96357.33
2019-03-03T17:11:38.736Z,96358.19
2019-03-03T17:14:36.635Z,96364.54
2019-03-03T17:17:34.466Z,96366.26
2019-03-03T17:20:30.723Z,96355.69
2019-03-03T17:23:27.200Z,96354.00
2019-03-03T17:26:24.090Z,96350.63
2019-03-03T17:29:19.949Z,96354.01
2019-03-03T17:32:15.888Z,96352.34
2019-03-03T17:35:13.419Z,96350.63
2019-03-03T17:38:09.225Z,96342.61
2019-03-03T17:41:07.009Z,96341.34
2019-03-03T17:44:03.491Z,96340.48
2019-03-03T17:46:58.787Z,96343.91
2019-03-03T17:49:55.378Z,96351.52
2019-03-03T17:52:50.122Z,96345.59
2019-03-03T17:55:47.278Z,96334.17
2019-03-03T17:58:42.790Z,96337.55
2019-03-03T18:01:39.380Z,96330.38
2019-03-03T18:04:35.340Z,96327.00
2019-03-03T18:07:32.157Z,96326.98
2019-03-03T18:10:27.440Z,96319.37
2019-03-03T18:13:23.541Z,96319.38
2019-03-03T18:16:22.118Z,96321.94
2019-03-03T18:19:18.703Z,96318.11
2019-03-03T18:22:15.242Z,96316.44
2019-03-03T18:25:10.953Z,96310.94
2019-03-03T18:28:07.717Z,96312.63
2019-03-03T18:31:03.608Z,96303.34
2019-03-03T18:34:00.318Z,96308.39
2019-03-03T18:36:56.988Z,96295.73
2019-03-03T18:39:53.934Z,96295.75
2019-03-03T18:42:49.480Z,96300.80
2019-03-03T18:45:49.093Z,96291.07
2019-03-03T18:48:44.595Z,96297.42
2019-03-03T18:51:41.355Z,96295.30
2019-03-03T18:54:38.889Z,96294.91
2019-03-03T18:57:34.562Z,96298.27
2019-03-03T19:00:33.347Z,96287.28
2019-03-03T19:03:29.747Z,96291.11
2019-03-03T19:06:26.769Z,96292.34
2019-03-03T19:09:27.533Z,96282.20
2019-03-03T19:12:25.246Z,96285.61
2019-03-03T19:15:20.911Z,96286.88
2019-03-03T19:18:18.872Z,96286.44
2019-03-03T19:21:14.480Z,96284.77
2019-03-03T19:24:11.081Z,96278.84
2019-03-03T19:27:07.619Z,96261.94
2019-03-03T19:30:04.438Z,96272.91
2019-03-03T19:32:59.052Z,96273.77
2019-03-03T19:35:55.134Z,96276.30
2019-03-03T19:38:51.883Z,96270.38
2019-03-03T19:41:47.671Z,96280.52
2019-03-03T19:44:44.251Z,96273.75
2019-03-03T19:47:39.865Z,96264.47
2019-03-03T19:50:36.159Z,96264.42
2019-03-03T19:53:33.053Z,96263.17
2019-03-03T19:56:29.704Z,96259.34
2019-03-03T19:59:24.432Z,96260.62
2019-03-03T20:02:24.014Z,96253.44
2019-03-03T20:05:19.769Z,96253.00
2019-03-03T20:08:17.417Z,96252.59
2019-03-03T20:11:13.135Z,96254.27
2019-03-03T20:14:09.812Z,96250.86
2019-03-03T20:17:06.708Z,96252.55
2019-03-03T20:20:04.351Z,96262.68
2019-03-03T20:23:00.858Z,96253.79
2019-03-03T20:25:58.187Z,96247.43
2019-03-03T20:28:56.157Z,96234.33
2019-03-03T20:31:51.894Z,96230.54
2019-03-03T20:34:48.570Z,96235.57
2019-03-03T20:37:45.120Z,96224.59
2019-03-03T20:40:41.762Z,96233.45
2019-03-03T20:43:37.106Z,96228.77
2019-03-03T20:46:33.969Z,96227.91
2019-03-03T20:49:29.920Z,96221.14
2019-03-03T20:52:28.777Z,96235.50
2019-03-03T20:55:22.350Z,96223.66
2019-03-03T20:58:19.927Z,96221.95
2019-03-03T21:01:15.285Z,96221.95
2019-03-03T21:04:12.093Z,96221.91
2019-03-03T21:07:08.305Z,96223.17
2019-03-03T21:10:04.181Z,96217.26
2019-03-03T21:13:00.200Z,96211.80
2019-03-03T21:15:55.344Z,96207.13
2019-03-03T21:18:53.014Z,96205.47
2019-03-03T21:21:49.552Z,96196.61
2019-03-03T21:24:49.321Z,96194.49
2019-03-03T21:27:45.678Z,96183.11
2019-03-03T21:30:43.401Z,96186.46
2019-03-03T21:33:39.985Z,96184.78
2019-03-03T21:36:35.722Z,96189.02
2019-03-03T21:39:33.100Z,96191.11
2019-03-03T21:42:28.367Z,96192.38
2019-03-03T21:45:25.419Z,96196.57
2019-03-03T21:48:20.995Z,96195.72
2019-03-03T21:51:18.751Z,96196.56
2019-03-03T21:54:15.265Z,96194.00
2019-03-03T21:57:11.799Z,96192.32
2019-03-03T22:00:08.352Z,96191.47
2019-03-03T22:03:05.021Z,96186.81
2019-03-03T22:06:01.280Z,96186.41
2019-03-03T22:08:57.725Z,96186.41
2019-03-03T22:11:54.409Z,96180.49
2019-03-03T22:14:49.939Z,96185.52
2019-03-03T22:17:46.630Z,96186.36
2019-03-03T22:20:41.619Z,96182.56
2019-03-03T22:23:37.949Z,96161.44
2019-03-03T22:26:36.511Z,96180.45
2019-03-03T22:29:32.746Z,96177.92
2019-03-03T22:32:30.023Z,96170.34
2019-03-03T22:35:26.477Z,96172.05
2019-03-03T22:38:23.164Z,96166.55
2019-03-03T22:41:18.931Z,96168.25
2019-03-03T22:44:16.725Z,96165.28
2019-03-03T22:47:12.169Z,96157.70
2019-03-03T22:50:09.934Z,96155.17
2019-03-03T22:53:05.384Z,96156.88
2019-03-03T22:56:01.304Z,96157.73
2019-03-03T22:58:56.057Z,96153.53
2019-03-03T23:01:56.002Z,96146.77
2019-03-03T23:05:15.001Z,96146.77
2019-03-03T23:08:20.191Z,96131.60
2019-03-03T23:11:46.111Z,96129.08
2019-03-03T23:15:17.228Z,96117.25
2019-03-03T23:18:28.316Z,96114.72
2019-03-03T23:21:49.191Z,96118.52
2019-03-03T23:25:29.453Z,96111.34
2019-03-03T23:28:27.375Z,96126.09
2019-03-03T23:31:23.852Z,96118.47
2019-03-03T23:34:20.357Z,96111.30
2019-03-03T23:37:16.090Z,96107.50
2019-03-03T23:40:12.022Z,96110.02
2019-03-03T23:43:07.710Z,96106.20
2019-03-03T23:46:03.964Z,96098.20
2019-03-03T23:49:00.261Z,96097.36
2019-03-03T23:51:56.852Z,96096.53
2019-03-03T23:54:52.514Z,96085.57
